Terminal Aerodrome Forecast
Issued by NWS

Current Version | Previous Version | Graphics & Text | Print | Product List | Glossary On
Versions: 1 2 3 4 5 6 7 8 9 10 11 12 13 14 15 16 17 18 19 20 21 22 23 24 25 26 27 28 29 30
000
FTUS41 KRLX 211600 AAB
TAFCKB
TAF AMD
KCKB 211603Z 2116/2212 29005KT P6SM OVC008
      TEMPO 2116/2118 3SM RA BR
     FM211800 26006KT P6SM -SHRA OVC015
      TEMPO 2118/2121 3SM RA BR
     FM212100 27007KT P6SM -SHRA OVC025
     FM220100 31005KT 6SM -SHRA BR OVC035
     FM220200 31006KT P6SM OVC025
     FM220500 31005KT P6SM OVC015
     FM221100 31004KT P6SM OVC010=

USA.gov is the U.S. government's official web portal to all federal, state and local government web resources and services.